sensor_id;sensor_type;location;lat;lon;timestamp;pressure;altitude;pressure_sealevel;temperature;humidity
78182;BME280;67441;50.116;8.696;2023-05-07T00:00:19;100315.44;;;16.82;63.23
78182;BME280;67441;50.116;8.696;2023-05-07T00:00:47;100284.63;;;16.65;62.82
78182;BME280;67441;50.116;8.696;2023-05-07T00:01:13;100312.59;;;16.94;62.53
78182;BME280;67441;50.116;8.696;2023-05-07T00:01:39;100318.78;;;16.93;62.80
78182;BME280;67441;50.116;8.696;2023-05-07T00:02:06;100237.06;;;16.49;62.88
78182;BME280;67441;50.116;8.696;2023-05-07T00:02:35;100268.81;;;16.58;62.79
78182;BME280;67441;50.116;8.696;2023-05-07T00:03:00;100324.28;;;16.82;63.08
78182;BME280;67441;50.116;8.696;2023-05-07T00:03:26;100244.22;;;16.44;62.65
78182;BME280;67441;50.116;8.696;2023-05-07T00:03:52;100316.19;;;16.90;62.80
78182;BME280;67441;50.116;8.696;2023-05-07T00:04:18;100283.66;;;16.74;62.71
78182;BME280;67441;50.116;8.696;2023-05-07T00:04:43;100312.63;;;16.91;62.81
78182;BME280;67441;50.116;8.696;2023-05-07T00:05:10;100286.22;;;16.80;62.42
78182;BME280;67441;50.116;8.696;2023-05-07T00:05:36;100313.34;;;17.02;62.43
78182;BME280;67441;50.116;8.696;2023-05-07T00:06:03;100283.44;;;16.86;62.31
78182;BME280;67441;50.116;8.696;2023-05-07T00:06:29;100315.09;;;17.03;62.30
78182;BME280;67441;50.116;8.696;2023-05-07T00:06:55;100276.34;;;16.88;62.21
78182;BME280;67441;50.116;8.696;2023-05-07T00:07:20;100317.91;;;16.93;62.62
78182;BME280;67441;50.116;8.696;2023-05-07T00:07:47;100263.22;;;16.76;62.46
78182;BME280;67441;50.116;8.696;2023-05-07T00:08:13;100285.19;;;16.89;62.06
78182;BME280;67441;50.116;8.696;2023-05-07T00:08:38;100317.75;;;17.03;62.35
78182;BME280;67441;50.116;8.696;2023-05-07T00:09:04;100280.09;;;16.74;62.40
78182;BME280;67441;50.116;8.696;2023-05-07T00:09:30;100281.09;;;16.67;62.84
78182;BME280;67441;50.116;8.696;2023-05-07T00:09:57;100254.59;;;16.59;62.34
78182;BME280;67441;50.116;8.696;2023-05-07T00:10:22;100320.50;;;16.99;62.47
78182;BME280;67441;50.116;8.696;2023-05-07T00:10:48;100292.50;;;16.73;62.60
78182;BME280;67441;50.116;8.696;2023-05-07T00:11:19;100316.16;;;16.92;62.84
78182;BME280;67441;50.116;8.696;2023-05-07T00:11:52;100315.22;;;16.97;62.43
78182;BME280;67441;50.116;8.696;2023-05-07T00:12:18;100275.59;;;16.80;62.14
78182;BME280;67441;50.116;8.696;2023-05-07T00:12:47;100267.66;;;16.76;62.31
78182;BME280;67441;50.116;8.696;2023-05-07T00:13:13;100317.84;;;16.99;62.47
78182;BME280;67441;50.116;8.696;2023-05-07T00:13:39;100267.66;;;16.76;62.34
78182;BME280;67441;50.116;8.696;2023-05-07T00:14:05;100317.75;;;17.03;62.53
78182;BME280;67441;50.116;8.696;2023-05-07T00:14:31;100295.69;;;16.97;61.90
78182;BME280;67441;50.116;8.696;2023-05-07T00:14:56;100311.44;;;17.10;61.91
78182;BME280;67441;50.116;8.696;2023-05-07T00:15:23;100256.94;;;16.82;61.78
78182;BME280;67441;50.116;8.696;2023-05-07T00:15:49;100285.88;;;17.00;61.85
78182;BME280;67441;50.116;8.696;2023-05-07T00:16:15;100316.66;;;17.17;61.85
78182;BME280;67441;50.116;8.696;2023-05-07T00:16:43;100299.13;;;17.05;61.78
78182;BME280;67441;50.116;8.696;2023-05-07T00:17:15;100319.31;;;17.17;61.88
78182;BME280;67441;50.116;8.696;2023-05-07T00:17:44;100314.97;;;17.11;61.90
78182;BME280;67441;50.116;8.696;2023-05-07T00:18:16;100272.03;;;16.80;61.93
78182;BME280;67441;50.116;8.696;2023-05-07T00:18:48;100314.06;;;17.12;62.02
78182;BME280;67441;50.116;8.696;2023-05-07T00:19:16;100313.94;;;17.20;61.90
78182;BME280;67441;50.116;8.696;2023-05-07T00:19:42;100309.53;;;17.19;61.72
78182;BME280;67441;50.116;8.696;2023-05-07T00:20:11;100312.19;;;17.19;61.62
78182;BME280;67441;50.116;8.696;2023-05-07T00:20:40;100309.63;;;17.13;61.85
78182;BME280;67441;50.116;8.696;2023-05-07T00:21:06;100285.06;;;16.98;61.75
78182;BME280;67441;50.116;8.696;2023-05-07T00:21:31;100309.69;;;17.09;61.89
78182;BME280;67441;50.116;8.696;2023-05-07T00:21:57;100266.75;;;16.78;61.96
78182;BME280;67441;50.116;8.696;2023-05-07T00:22:23;100307.97;;;17.04;62.19
78182;BME280;67441;50.116;8.696;2023-05-07T00:22:49;100279.88;;;16.89;62.06
78182;BME280;67441;50.116;8.696;2023-05-07T00:23:14;100315.91;;;17.07;62.19
78182;BME280;67441;50.116;8.696;2023-05-07T00:23:40;100266.84;;;16.69;62.42
78182;BME280;67441;50.116;8.696;2023-05-07T00:24:05;100308.25;;;16.88;62.74
78182;BME280;67441;50.116;8.696;2023-05-07T00:24:31;100306.31;;;16.97;62.50
78182;BME280;67441;50.116;8.696;2023-05-07T00:24:56;100308.06;;;16.99;62.23
78182;BME280;67441;50.116;8.696;2023-05-07T00:25:22;100266.78;;;16.77;62.28
78182;BME280;67441;50.116;8.696;2023-05-07T00:25:47;100307.22;;;16.97;62.16
78182;BME280;67441;50.116;8.696;2023-05-07T00:26:16;100279.25;;;16.70;62.47
78182;BME280;67441;50.116;8.696;2023-05-07T00:26:42;100310.97;;;16.84;62.55
78182;BME280;67441;50.116;8.696;2023-05-07T00:27:08;100318.84;;;16.90;62.60
78182;BME280;67441;50.116;8.696;2023-05-07T00:27:35;100318.78;;;16.93;62.39
78182;BME280;67441;50.116;8.696;2023-05-07T00:28:04;100265.19;;;16.62;62.45
78182;BME280;67441;50.116;8.696;2023-05-07T00:28:30;100314.69;;;16.69;63.16
78182;BME280;67441;50.116;8.696;2023-05-07T00:28:59;100313.75;;;16.75;63.08
78182;BME280;67441;50.116;8.696;2023-05-07T00:29:24;100309.28;;;16.78;63.05
78182;BME280;67441;50.116;8.696;2023-05-07T00:29:51;100279.31;;;16.65;62.98
78182;BME280;67441;50.116;8.696;2023-05-07T00:30:23;100309.94;;;16.93;62.80
78182;BME280;67441;50.116;8.696;2023-05-07T00:30:55;100259.78;;;16.70;62.60
78182;BME280;67441;50.116;8.696;2023-05-07T00:31:23;100254.38;;;16.76;62.18
78182;BME280;67441;50.116;8.696;2023-05-07T00:31:49;100312.44;;;17.05;62.24
78182;BME280;67441;50.116;8.696;2023-05-07T00:32:15;100264.91;;;16.82;62.03
78182;BME280;67441;50.116;8.696;2023-05-07T00:32:41;100311.47;;;17.07;62.17
78182;BME280;67441;50.116;8.696;2023-05-07T00:33:06;100259.69;;;16.77;62.08
78182;BME280;67441;50.116;8.696;2023-05-07T00:33:32;100310.63;;;17.04;62.24
78182;BME280;67441;50.116;8.696;2023-05-07T00:33:57;100274.59;;;16.87;62.20
78182;BME280;67441;50.116;8.696;2023-05-07T00:34:23;100316.78;;;17.07;62.01
78182;BME280;67441;50.116;8.696;2023-05-07T00:34:49;100258.81;;;16.75;62.36
78182;BME280;67441;50.116;8.696;2023-05-07T00:35:16;100315.91;;;17.07;61.87
78182;BME280;67441;50.116;8.696;2023-05-07T00:35:42;100305.28;;;17.07;62.12
78182;BME280;67441;50.116;8.696;2023-05-07T00:36:08;100309.84;;;16.99;62.44
78182;BME280;67441;50.116;8.696;2023-05-07T00:36:33;100306.50;;;16.87;62.56
78182;BME280;67441;50.116;8.696;2023-05-07T00:37:01;100309.19;;;16.83;62.82
78182;BME280;67441;50.116;8.696;2023-05-07T00:37:27;100225.78;;;16.33;63.15
78182;BME280;67441;50.116;8.696;2023-05-07T00:37:53;100313.66;;;16.82;62.92
78182;BME280;67441;50.116;8.696;2023-05-07T00:38:19;100277.66;;;16.58;63.28
78182;BME280;67441;50.116;8.696;2023-05-07T00:38:46;100311.97;;;16.75;63.17
78182;BME280;67441;50.116;8.696;2023-05-07T00:39:12;100258.28;;;16.50;62.92
78182;BME280;67441;50.116;8.696;2023-05-07T00:39:37;100314.56;;;16.81;63.13
78182;BME280;67441;50.116;8.696;2023-05-07T00:40:03;100276.59;;;16.69;62.87
78182;BME280;67441;50.116;8.696;2023-05-07T00:40:32;100313.66;;;16.82;62.68
78182;BME280;67441;50.116;8.696;2023-05-07T00:40:58;100311.91;;;16.80;62.85
78182;BME280;67441;50.116;8.696;2023-05-07T00:41:24;100309.28;;;16.78;62.89
78182;BME280;67441;50.116;8.696;2023-05-07T00:41:49;100310.13;;;16.82;63.01
78182;BME280;67441;50.116;8.696;2023-05-07T00:42:17;100293.38;;;16.72;62.75
78182;BME280;67441;50.116;8.696;2023-05-07T00:42:43;100314.53;;;16.83;62.88
78182;BME280;67441;50.116;8.696;2023-05-07T00:43:12;100316.22;;;16.88;62.70
78182;BME280;67441;50.116;8.696;2023-05-07T00:43:38;100313.53;;;16.90;62.54
78182;BME280;67441;50.116;8.696;2023-05-07T00:44:04;100307.38;;;16.88;62.57
78182;BME280;67441;50.116;8.696;2023-05-07T00:44:30;100315.34;;;16.86;62.83
78182;BME280;67441;50.116;8.696;2023-05-07T00:44:55;100310.91;;;16.88;62.37
78182;BME280;67441;50.116;8.696;2023-05-07T00:45:26;100267.88;;;16.60;62.84
78182;BME280;67441;50.116;8.696;2023-05-07T00:45:55;100315.31;;;16.91;62.44
78182;BME280;67441;50.116;8.696;2023-05-07T00:46:22;100314.47;;;16.86;62.54
78182;BME280;67441;50.116;8.696;2023-05-07T00:46:51;100276.66;;;16.67;62.58
78182;BME280;67441;50.116;8.696;2023-05-07T00:47:18;100313.47;;;16.95;62.38
78182;BME280;67441;50.116;8.696;2023-05-07T00:47:43;100313.44;;;16.96;62.36
78182;BME280;67441;50.116;8.696;2023-05-07T00:48:09;100320.59;;;16.93;62.42
78182;BME280;67441;50.116;8.696;2023-05-07T00:48:35;100268.69;;;16.65;62.61
78182;BME280;67441;50.116;8.696;2023-05-07T00:49:02;100313.47;;;16.95;62.66
78182;BME280;67441;50.116;8.696;2023-05-07T00:49:39;100256.28;;;16.66;62.45
78182;BME280;67441;50.116;8.696;2023-05-07T00:50:07;100231.63;;;16.56;62.69
78182;BME280;67441;50.116;8.696;2023-05-07T00:50:34;100310.69;;;17.02;62.46
78182;BME280;67441;50.116;8.696;2023-05-07T00:51:00;100253.56;;;16.69;62.53
78182;BME280;67441;50.116;8.696;2023-05-07T00:51:26;100303.72;;;16.94;62.56
78182;BME280;67441;50.116;8.696;2023-05-07T00:51:53;100278.25;;;16.80;62.71
78182;BME280;67441;50.116;8.696;2023-05-07T00:52:20;100306.41;;;16.92;62.68
78182;BME280;67441;50.116;8.696;2023-05-07T00:52:47;100303.78;;;16.89;63.02
78182;BME280;67441;50.116;8.696;2023-05-07T00:53:14;100300.19;;;16.93;62.76
78182;BME280;67441;50.116;8.696;2023-05-07T00:53:40;100302.78;;;16.96;62.48
78182;BME280;67441;50.116;8.696;2023-05-07T00:54:08;100299.25;;;16.96;62.62
78182;BME280;67441;50.116;8.696;2023-05-07T00:54:34;100259.78;;;16.70;62.42
78182;BME280;67441;50.116;8.696;2023-05-07T00:55:05;100270.34;;;16.73;62.96
78182;BME280;67441;50.116;8.696;2023-05-07T00:55:32;100273.84;;;16.78;62.62
78182;BME280;67441;50.116;8.696;2023-05-07T00:55:58;100256.25;;;16.68;62.71
78182;BME280;67441;50.116;8.696;2023-05-07T00:56:26;100302.13;;;16.83;63.10
78182;BME280;67441;50.116;8.696;2023-05-07T00:56:53;100285.56;;;16.63;63.49
78182;BME280;67441;50.116;8.696;2023-05-07T00:57:21;100203.75;;;16.26;63.53
78182;BME280;67441;50.116;8.696;2023-05-07T00:57:48;100209.06;;;16.26;63.25
78182;BME280;67441;50.116;8.696;2023-05-07T00:58:15;100297.75;;;16.79;63.27
78182;BME280;67441;50.116;8.696;2023-05-07T00:58:41;100220.53;;;16.28;63.50
78182;BME280;67441;50.116;8.696;2023-05-07T00:59:06;100304.22;;;16.60;63.71
78182;BME280;67441;50.116;8.696;2023-05-07T00:59:33;100219.03;;;16.09;63.98
78182;BME280;67441;50.116;8.696;2023-05-07T00:59:59;100222.56;;;16.09;64.28
78182;BME280;67441;50.116;8.696;2023-05-07T01:00:25;100301.53;;;16.63;64.12
78182;BME280;67441;50.116;8.696;2023-05-07T01:00:52;100255.84;;;16.36;64.16
78182;BME280;67441;50.116;8.696;2023-05-07T01:01:17;100295.28;;;16.62;63.96
78182;BME280;67441;50.116;8.696;2023-05-07T01:01:43;100227.03;;;16.07;64.37
78182;BME280;67441;50.116;8.696;2023-05-07T01:02:09;100295.56;;;16.44;64.77
78182;BME280;67441;50.116;8.696;2023-05-07T01:02:35;100226.19;;;16.02;64.52
78182;BME280;67441;50.116;8.696;2023-05-07T01:03:01;100292.84;;;16.50;64.60
78182;BME280;67441;50.116;8.696;2023-05-07T01:03:30;100281.34;;;16.50;64.32
78182;BME280;67441;50.116;8.696;2023-05-07T01:03:55;100297.06;;;16.63;64.20
78182;BME280;67441;50.116;8.696;2023-05-07T01:04:24;100283.78;;;16.63;63.96
78182;BME280;67441;50.116;8.696;2023-05-07T01:04:50;100259.09;;;16.55;63.79
78182;BME280;67441;50.116;8.696;2023-05-07T01:05:17;100298.69;;;16.74;63.73
78182;BME280;67441;50.116;8.696;2023-05-07T01:05:46;100267.81;;;16.65;63.68
78182;BME280;67441;50.116;8.696;2023-05-07T01:06:14;100298.69;;;16.75;63.76
78182;BME280;67441;50.116;8.696;2023-05-07T01:06:42;100303.13;;;16.73;63.91
78182;BME280;67441;50.116;8.696;2023-05-07T01:07:07;100294.41;;;16.63;63.94
78182;BME280;67441;50.116;8.696;2023-05-07T01:07:33;100305.84;;;16.69;63.88
78182;BME280;67441;50.116;8.696;2023-05-07T01:08:01;100305.81;;;16.72;63.88
78182;BME280;67441;50.116;8.696;2023-05-07T01:08:28;100298.75;;;16.69;63.62
78182;BME280;67441;50.116;8.696;2023-05-07T01:08:54;100301.53;;;16.63;64.17
78182;BME280;67441;50.116;8.696;2023-05-07T01:09:25;100221.50;;;16.23;63.97
78182;BME280;67441;50.116;8.696;2023-05-07T01:09:51;100253.06;;;16.46;63.76
78182;BME280;67441;50.116;8.696;2023-05-07T01:10:17;100222.25;;;16.31;63.73
78182;BME280;67441;50.116;8.696;2023-05-07T01:10:43;100303.19;;;16.70;63.62
78182;BME280;67441;50.116;8.696;2023-05-07T01:11:09;100237.31;;;16.30;63.56
78182;BME280;67441;50.116;8.696;2023-05-07T01:11:36;100297.03;;;16.65;63.75
78182;BME280;67441;50.116;8.696;2023-05-07T01:12:03;100297.03;;;16.65;64.01
78182;BME280;67441;50.116;8.696;2023-05-07T01:12:29;100257.41;;;16.50;63.72
78182;BME280;67441;50.116;8.696;2023-05-07T01:12:57;100301.53;;;16.63;64.12
78182;BME280;67441;50.116;8.696;2023-05-07T01:13:25;100268.09;;;16.45;64.09
78182;BME280;67441;50.116;8.696;2023-05-07T01:13:51;100240.84;;;16.31;64.10
78182;BME280;67441;50.116;8.696;2023-05-07T01:14:18;100296.25;;;16.58;64.08
78182;BME280;67441;50.116;8.696;2023-05-07T01:14:45;100219.09;;;16.03;64.48
78182;BME280;67441;50.116;8.696;2023-05-07T01:15:11;100299.06;;;16.48;64.66
78182;BME280;67441;50.116;8.696;2023-05-07T01:15:37;100242.78;;;16.20;64.59
78182;BME280;67441;50.116;8.696;2023-05-07T01:16:04;100298.19;;;16.49;64.46
78182;BME280;67441;50.116;8.696;2023-05-07T01:16:30;100221.81;;;16.00;64.51
78182;BME280;67441;50.116;8.696;2023-05-07T01:16:56;100263.94;;;16.26;64.65
78182;BME280;67441;50.116;8.696;2023-05-07T01:17:22;100302.81;;;16.31;64.98
78182;BME280;67441;50.116;8.696;2023-05-07T01:17:48;100284.47;;;16.14;65.49
78182;BME280;67441;50.116;8.696;2023-05-07T01:18:13;100302.00;;;16.26;65.53
78182;BME280;67441;50.116;8.696;2023-05-07T01:18:40;100271.28;;;16.07;65.54
78182;BME280;67441;50.116;8.696;2023-05-07T01:19:06;100297.66;;;16.22;65.79
78182;BME280;67441;50.116;8.696;2023-05-07T01:19:32;100294.13;;;16.22;65.68
78182;BME280;67441;50.116;8.696;2023-05-07T01:19:58;100212.41;;;15.74;65.65
78182;BME280;67441;50.116;8.696;2023-05-07T01:20:24;100255.34;;;16.07;65.27
78182;BME280;67441;50.116;8.696;2023-05-07T01:20:50;100298.31;;;16.39;65.30
78182;BME280;67441;50.116;8.696;2023-05-07T01:21:16;100292.16;;;16.36;64.98
78182;BME280;67441;50.116;8.696;2023-05-07T01:21:48;100216.69;;;15.84;65.46
78182;BME280;67441;50.116;8.696;2023-05-07T01:22:15;100266.75;;;16.15;65.21
78182;BME280;67441;50.116;8.696;2023-05-07T01:22:43;100261.47;;;16.10;65.44
78182;BME280;67441;50.116;8.696;2023-05-07T01:23:11;100252.59;;;16.14;65.35
78182;BME280;67441;50.116;8.696;2023-05-07T01:23:37;100253.34;;;16.24;64.85
78182;BME280;67441;50.116;8.696;2023-05-07T01:24:04;100248.97;;;16.22;64.82
78182;BME280;67441;50.116;8.696;2023-05-07T01:24:31;100275.19;;;16.46;64.57
78182;BME280;67441;50.116;8.696;2023-05-07T01:24:58;100285.69;;;16.54;64.69
78182;BME280;67441;50.116;8.696;2023-05-07T01:25:24;100252.16;;;16.45;64.21
78182;BME280;67441;50.116;8.696;2023-05-07T01:25:52;100288.19;;;16.66;64.26
78182;BME280;67441;50.116;8.696;2023-05-07T01:26:18;100256.53;;;16.48;64.20
78182;BME280;67441;50.116;8.696;2023-05-07T01:26:45;100204.81;;;16.14;63.97
78182;BME280;67441;50.116;8.696;2023-05-07T01:27:10;100282.88;;;16.64;64.20
78182;BME280;67441;50.116;8.696;2023-05-07T01:27:36;100287.28;;;16.67;64.36
78182;BME280;67441;50.116;8.696;2023-05-07T01:28:03;100231.00;;;16.39;63.87
78182;BME280;67441;50.116;8.696;2023-05-07T01:28:28;100291.63;;;16.71;63.87
78182;BME280;67441;50.116;8.696;2023-05-07T01:28:55;100290.72;;;16.75;63.90
78182;BME280;67441;50.116;8.696;2023-05-07T01:29:21;100245.00;;;16.50;63.94
78182;BME280;67441;50.116;8.696;2023-05-07T01:29:46;100289.84;;;16.73;63.74
78182;BME280;67441;50.116;8.696;2023-05-07T01:30:12;100253.72;;;16.58;63.64
78182;BME280;67441;50.116;8.696;2023-05-07T01:30:45;100293.38;;;16.77;63.66
78182;BME280;67441;50.116;8.696;2023-05-07T01:31:14;100260.75;;;16.62;63.63
78182;BME280;67441;50.116;8.696;2023-05-07T01:31:44;100291.59;;;16.76;63.66
78182;BME280;67441;50.116;8.696;2023-05-07T01:32:13;100294.34;;;16.68;63.88
78182;BME280;67441;50.116;8.696;2023-05-07T01:32:53;100200.41;;;16.12;63.72
78182;BME280;67441;50.116;8.696;2023-05-07T01:33:23;100205.69;;;16.15;63.59
78182;BME280;67441;50.116;8.696;2023-05-07T01:33:51;100293.50;;;16.66;63.89
78182;BME280;67441;50.116;8.696;2023-05-07T01:34:18;100209.09;;;16.25;63.65
78182;BME280;67441;50.116;8.696;2023-05-07T01:34:46;100249.41;;;16.53;63.49
78182;BME280;67441;50.116;8.696;2023-05-07T01:35:20;100237.06;;;16.49;63.42
78182;BME280;67441;50.116;8.696;2023-05-07T01:35:50;100261.63;;;16.64;63.57
78182;BME280;67441;50.116;8.696;2023-05-07T01:36:17;100266.88;;;16.68;63.42
78182;BME280;67441;50.116;8.696;2023-05-07T01:36:44;100269.50;;;16.69;63.61
78182;BME280;67441;50.116;8.696;2023-05-07T01:37:11;100240.53;;;16.54;63.61
78182;BME280;67441;50.116;8.696;2023-05-07T01:37:39;100257.09;;;16.71;63.41
78182;BME280;67441;50.116;8.696;2023-05-07T01:38:05;100262.56;;;16.60;63.53
78182;BME280;67441;50.116;8.696;2023-05-07T01:38:32;100284.53;;;16.73;63.51
78182;BME280;67441;50.116;8.696;2023-05-07T01:38:59;100266.97;;;16.63;63.50
78182;BME280;67441;50.116;8.696;2023-05-07T01:39:26;100218.81;;;16.24;63.48
78182;BME280;67441;50.116;8.696;2023-05-07T01:39:54;100247.00;;;16.34;63.86
78182;BME280;67441;50.116;8.696;2023-05-07T01:40:21;100224.28;;;16.13;64.19
78182;BME280;67441;50.116;8.696;2023-05-07T01:40:47;100244.50;;;16.25;64.38
78182;BME280;67441;50.116;8.696;2023-05-07T01:41:12;100298.97;;;16.54;64.34
78182;BME280;67441;50.116;8.696;2023-05-07T01:41:38;100262.78;;;16.45;64.32
78182;BME280;67441;50.116;8.696;2023-05-07T01:42:04;100289.94;;;16.65;63.99
78182;BME280;67441;50.116;8.696;2023-05-07T01:42:30;100225.94;;;16.22;64.10
78182;BME280;67441;50.116;8.696;2023-05-07T01:42:56;100293.63;;;16.57;63.76
78182;BME280;67441;50.116;8.696;2023-05-07T01:43:22;100295.59;;;16.41;64.23
78182;BME280;67441;50.116;8.696;2023-05-07T01:43:50;100299.28;;;16.32;64.62
78182;BME280;67441;50.116;8.696;2023-05-07T01:44:17;100224.53;;;15.95;64.68
78182;BME280;67441;50.116;8.696;2023-05-07T01:44:43;100250.06;;;16.05;64.55
78182;BME280;67441;50.116;8.696;2023-05-07T01:45:09;100300.13;;;16.34;64.73
78182;BME280;67441;50.116;8.696;2023-05-07T01:45:36;100293.91;;;16.37;64.82
78182;BME280;67441;50.116;8.696;2023-05-07T01:46:02;100293.78;;;16.45;64.82
78182;BME280;67441;50.116;8.696;2023-05-07T01:46:29;100290.22;;;16.49;64.40
78182;BME280;67441;50.116;8.696;2023-05-07T01:46:57;100249.88;;;16.19;64.22
78182;BME280;67441;50.116;8.696;2023-05-07T01:47:23;100295.56;;;16.44;64.49
78182;BME280;67441;50.116;8.696;2023-05-07T01:47:50;100291.19;;;16.40;64.74
78182;BME280;67441;50.116;8.696;2023-05-07T01:48:17;100300.19;;;16.30;64.61
78182;BME280;67441;50.116;8.696;2023-05-07T01:48:45;100263.28;;;16.10;64.93
78182;BME280;67441;50.116;8.696;2023-05-07T01:49:11;100218.47;;;15.82;64.80
78182;BME280;67441;50.116;8.696;2023-05-07T01:49:37;100287.09;;;16.16;65.24
78182;BME280;67441;50.116;8.696;2023-05-07T01:50:04;100291.56;;;16.12;65.40
78182;BME280;67441;50.116;8.696;2023-05-07T01:50:31;100245.88;;;15.86;65.31
78182;BME280;67441;50.116;8.696;2023-05-07T01:50:58;100252.75;;;16.02;65.27
78182;BME280;67441;50.116;8.696;2023-05-07T01:51:24;100262.28;;;16.19;65.03
78182;BME280;67441;50.116;8.696;2023-05-07T01:51:50;100289.50;;;16.34;64.74
78182;BME280;67441;50.116;8.696;2023-05-07T01:52:16;100257.16;;;16.05;65.11
78182;BME280;67441;50.116;8.696;2023-05-07T01:52:41;100293.28;;;16.16;65.15
78182;BME280;67441;50.116;8.696;2023-05-07T01:53:10;100245.75;;;15.95;65.08
78182;BME280;67441;50.116;8.696;2023-05-07T01:53:36;100293.28;;;16.18;65.20
78182;BME280;67441;50.116;8.696;2023-05-07T01:54:02;100242.19;;;15.98;65.18
78182;BME280;67441;50.116;8.696;2023-05-07T01:54:28;100293.22;;;16.23;65.11
78182;BME280;67441;50.116;8.696;2023-05-07T01:54:54;100206.22;;;15.72;65.35
78182;BME280;67441;50.116;8.696;2023-05-07T01:55:20;100289.69;;;16.22;65.09
78182;BME280;67441;50.116;8.696;2023-05-07T01:55:45;100286.94;;;16.27;65.29
78182;BME280;67441;50.116;8.696;2023-05-07T01:56:10;100294.09;;;16.25;65.19
78182;BME280;67441;50.116;8.696;2023-05-07T01:56:36;100205.25;;;15.79;64.90
78182;BME280;67441;50.116;8.696;2023-05-07T01:57:03;100205.19;;;15.87;64.78
78182;BME280;67441;50.116;8.696;2023-05-07T01:57:28;100281.56;;;16.31;65.08
78182;BME280;67441;50.116;8.696;2023-05-07T01:57:54;100240.25;;;16.10;64.89
78182;BME280;67441;50.116;8.696;2023-05-07T01:58:20;100289.47;;;16.37;64.66
78182;BME280;67441;50.116;8.696;2023-05-07T01:58:46;100256.94;;;16.22;64.85
78182;BME280;67441;50.116;8.696;2023-05-07T01:59:11;100285.09;;;16.33;64.87
78182;BME280;67441;50.116;8.696;2023-05-07T01:59:38;100242.84;;;16.13;64.73
78182;BME280;67441;50.116;8.696;2023-05-07T02:00:05;100292.25;;;16.27;65.34
78182;BME280;67441;50.116;8.696;2023-05-07T02:00:31;100258.81;;;16.12;65.32
78182;BME280;67441;50.116;8.696;2023-05-07T02:00:57;100262.31;;;16.14;65.43
78182;BME280;67441;50.116;8.696;2023-05-07T02:01:23;100289.66;;;16.24;65.47
78182;BME280;67441;50.116;8.696;2023-05-07T02:01:49;100278.25;;;16.15;65.35
78182;BME280;67441;50.116;8.696;2023-05-07T02:02:14;100294.16;;;16.17;65.64
78182;BME280;67441;50.116;8.696;2023-05-07T02:02:41;100290.59;;;16.21;65.59
78182;BME280;67441;50.116;8.696;2023-05-07T02:03:06;100298.50;;;16.24;65.59
78182;BME280;67441;50.116;8.696;2023-05-07T02:03:32;100285.34;;;16.15;65.72
78182;BME280;67441;50.116;8.696;2023-05-07T02:03:58;100246.63;;;15.97;65.42
78182;BME280;67441;50.116;8.696;2023-05-07T02:04:27;100259.78;;;16.06;65.54
78182;BME280;67441;50.116;8.696;2023-05-07T02:04:52;100288.81;;;16.20;65.44
78182;BME280;67441;50.116;8.696;2023-05-07T02:05:19;100239.53;;;15.96;65.44
78182;BME280;67441;50.116;8.696;2023-05-07T02:05:44;100288.00;;;16.13;65.85
78182;BME280;67441;50.116;8.696;2023-05-07T02:06:10;100284.50;;;16.11;65.86
78182;BME280;67441;50.116;8.696;2023-05-07T02:06:36;100257.25;;;15.97;65.99
78182;BME280;67441;50.116;8.696;2023-05-07T02:07:01;100288.94;;;16.11;65.93
78182;BME280;67441;50.116;8.696;2023-05-07T02:07:27;100294.16;;;16.17;65.91
78182;BME280;67441;50.116;8.696;2023-05-07T02:07:54;100237.84;;;15.93;65.68
78182;BME280;67441;50.116;8.696;2023-05-07T02:08:31;100286.13;;;16.25;65.64
78182;BME280;67441;50.116;8.696;2023-05-07T02:08:57;100291.44;;;16.23;65.84
78182;BME280;67441;50.116;8.696;2023-05-07T02:09:22;100294.13;;;16.20;65.74
78182;BME280;67441;50.116;8.696;2023-05-07T02:09:48;100277.53;;;16.03;65.95
78182;BME280;67441;50.116;8.696;2023-05-07T02:10:14;100295.09;;;16.13;66.03
78182;BME280;67441;50.116;8.696;2023-05-07T02:10:40;100201.03;;;15.66;65.69
78182;BME280;67441;50.116;8.696;2023-05-07T02:11:06;100295.94;;;16.18;65.63
78182;BME280;67441;50.116;8.696;2023-05-07T02:11:32;100270.44;;;16.03;65.78
78182;BME280;67441;50.116;8.696;2023-05-07T02:11:57;100284.63;;;16.04;66.26
78182;BME280;67441;50.116;8.696;2023-05-07T02:12:23;100272.38;;;15.90;66.26
78182;BME280;67441;50.116;8.696;2023-05-07T02:12:48;100298.72;;;16.06;66.31
78182;BME280;67441;50.116;8.696;2023-05-07T02:13:14;100213.41;;;15.62;65.96
78182;BME280;67441;50.116;8.696;2023-05-07T02:13:41;100295.09;;;16.14;65.88
78182;BME280;67441;50.116;8.696;2023-05-07T02:14:07;100301.19;;;16.23;65.86
78182;BME280;67441;50.116;8.696;2023-05-07T02:14:32;100298.56;;;16.20;65.74
78182;BME280;67441;50.116;8.696;2023-05-07T02:14:58;100303.78;;;16.26;65.55
78182;BME280;67441;50.116;8.696;2023-05-07T02:15:24;100299.41;;;16.23;65.60
78182;BME280;67441;50.116;8.696;2023-05-07T02:15:50;100302.88;;;16.27;65.51
78182;BME280;67441;50.116;8.696;2023-05-07T02:16:15;100296.69;;;16.26;65.58
78182;BME280;67441;50.116;8.696;2023-05-07T02:16:42;100243.25;;;15.83;65.84
78182;BME280;67441;50.116;8.696;2023-05-07T02:17:07;100251.94;;;15.96;65.68
78182;BME280;67441;50.116;8.696;2023-05-07T02:17:33;100300.28;;;16.24;65.63
78182;BME280;67441;50.116;8.696;2023-05-07T02:18:01;100222.91;;;15.83;65.71
78182;BME280;67441;50.116;8.696;2023-05-07T02:18:27;100271.28;;;16.07;65.58
78182;BME280;67441;50.116;8.696;2023-05-07T02:18:53;100295.00;;;16.22;65.62
78182;BME280;67441;50.116;8.696;2023-05-07T02:19:18;100229.94;;;15.86;65.36
78182;BME280;67441;50.116;8.696;2023-05-07T02:19:46;100269.47;;;16.09;65.22
78182;BME280;67441;50.116;8.696;2023-05-07T02:20:11;100300.28;;;16.24;65.66